Halwa — ZGAP7 — position and weather

sailwx.info

Track history (hours):
 
Tides and Currents Weather Stations Pressure Air Temp Water Temp Dewpoint Dewpoint Depression Visibility Wind Speed Wind Dir Waves Ship Positions

Halwa

Last reported at 2014-Aug-20 09:14 UTC. Time now 2014-Aug-23 09:35 UTC.
Position N 36°09' E 025°17'.

Length 27 m.

Type: Pleasure craft. MMSI: 319035100.

Date/timePositionNaut miles runAvg speedWind from/ knotsBaromVisibWave heightAir tempDewpointWater temp
2014-Aug-20 09:14N 36°09' E 025°17'  
2014-Aug-17 15:27N 36°28' E 025°22'9 1.4
2014-Aug-17 09:19N 36°22' E 025°29'6 7.3
2014-Aug-17 08:33N 36°23' E 025°22'5 5.5
2014-Aug-17 07:33N 36°28' E 025°22'1817.5
2014-Aug-17 06:33N 36°46' E 025°24'1918.6
2014-Aug-17 05:33N 37°04' E 025°18'1919.2
2014-Aug-17 04:33N 37°23' E 025°17'4 4.4
2014-Aug-17 03:31N 37°27' E 025°20'0 0.0
2014-Aug-17 02:28N 37°27' E 025°20'0 0.0
2014-Aug-17 01:19N 37°27' E 025°20'0 0.0
2014-Aug-17 00:31N 37°27' E 025°20'0 0.0
2014-Aug-16 23:31N 37°27' E 025°20'0 0.0
2014-Aug-16 22:31N 37°27' E 025°20'0 0.0
2014-Aug-16 21:31N 37°27' E 025°20'0 0.0
2014-Aug-16 20:31N 37°27' E 025°20'0 0.0
2014-Aug-16 19:22N 37°27' E 025°20'0 0.1
2014-Aug-16 18:30N 37°27' E 025°20'2 2.4
2014-Aug-16 17:29N 37°25' E 025°21'0 0.0
2014-Aug-16 12:32N 37°25' E 025°21'0 0.0
2014-Aug-16 11:29N 37°25' E 025°21'0 0.0
2014-Aug-16 10:17N 37°25' E 025°21'2 3.0
2014-Aug-16 09:33N 37°27' E 025°19'0 0.0
2014-Aug-16 08:33N 37°27' E 025°19'0 0.0
2014-Aug-16 07:33N 37°27' E 025°19'0 0.0
2014-Aug-16 06:33N 37°27' E 025°19'0 0.0
2014-Aug-16 05:33N 37°27' E 025°19'0 0.0
2014-Aug-16 04:33N 37°27' E 025°19'0 0.0
2014-Aug-16 03:33N 37°27' E 025°19'0 0.0
2014-Aug-16 02:33N 37°27' E 025°19'0 0.0
2014-Aug-16 01:33N 37°27' E 025°19'0 0.0
2014-Aug-16 00:33N 37°27' E 025°19'0 0.0
2014-Aug-15 23:33N 37°27' E 025°19'0 0.0
2014-Aug-15 22:33N 37°27' E 025°19'0 0.0
2014-Aug-15 21:33N 37°27' E 025°19'0 0.0
2014-Aug-15 20:33N 37°27' E 025°19'0 0.0
2014-Aug-15 19:33N 37°27' E 025°19'1 1.4
2014-Aug-15 18:31N 37°27' E 025°18'3 3.0
2014-Aug-15 17:27N 37°25' E 025°21'0 0.0
2014-Aug-15 16:33N 37°25' E 025°21'0 0.0
2014-Aug-15 15:33N 37°25' E 025°21'0 0.0
2014-Aug-15 14:33N 37°25' E 025°21'0 0.0
2014-Aug-15 13:33N 37°25' E 025°21'0 0.0
2014-Aug-15 12:30N 37°25' E 025°21'0 0.0
2014-Aug-15 11:30N 37°25' E 025°21'0 0.0
2014-Aug-15 10:33N 37°25' E 025°21'0 0.0
2014-Aug-15 09:33N 37°25' E 025°21'0 0.0
2014-Aug-15 08:30N 37°25' E 025°21'9 9.8
2014-Aug-15 07:32N 37°28' E 025°09'77 2.0
2014-Aug-13 17:33N 37°52' E 023°38'5 4.4
2014-Aug-13 16:29N 37°56' E 023°41'0 0.0
2014-Aug-13 14:26N 37°56' E 023°41'0 0.0
2014-Aug-13 13:20N 37°56' E 023°41'0 0.0
2014-Aug-13 11:14N 37°56' E 023°41'0 0.0
2014-Aug-13 10:23N 37°56' E 023°41'0 0.0
2014-Aug-13 09:23N 37°56' E 023°41'0 0.0
2014-Aug-13 08:32N 37°56' E 023°41'0 0.0
2014-Aug-13 07:08N 37°56' E 023°41'0 0.0
2014-Aug-13 05:26N 37°56' E 023°41'0 0.0
2014-Aug-13 03:26N 37°56' E 023°41'0 0.0
2014-Aug-13 02:05N 37°56' E 023°41'0 0.0
2014-Aug-12 22:11N 37°56' E 023°41'0 0.0
2014-Aug-12 21:32N 37°56' E 023°41'0 0.0
2014-Aug-12 16:21N 37°56' E 023°41'0 0.0
2014-Aug-12 15:33N 37°56' E 023°41'0 0.0
2014-Aug-12 14:30N 37°56' E 023°41'0 0.0
2014-Aug-12 13:24N 37°56' E 023°41'0 0.0
2014-Aug-12 12:27N 37°56' E 023°41'0 0.0
2014-Aug-12 10:21N 37°56' E 023°41'0 0.0
2014-Aug-12 09:30N 37°56' E 023°41'0 0.0
2014-Aug-12 07:33N 37°56' E 023°41'0 0.0
2014-Aug-12 06:30N 37°56' E 023°41'0 0.0
2014-Aug-12 04:30N 37°56' E 023°41'0 0.0
2014-Aug-12 03:12N 37°56' E 023°41'0 0.0
2014-Aug-12 00:30N 37°56' E 023°41'0 0.0
2014-Aug-11 22:33N 37°56' E 023°41'0 0.0
2014-Aug-11 20:30N 37°56' E 023°41'0 0.0
2014-Aug-11 18:33N 37°56' E 023°41'0 0.0
2014-Aug-11 17:12N 37°56' E 023°41'0 0.0
2014-Aug-11 16:33N 37°56' E 023°41'0 0.0
2014-Aug-11 15:33N 37°56' E 023°41'0 0.0
2014-Aug-11 14:30N 37°56' E 023°41'0 0.0
2014-Aug-11 13:33N 37°56' E 023°41'0 0.0
2014-Aug-11 12:33N 37°56' E 023°41'0 0.0
2014-Aug-11 08:30N 37°56' E 023°41'0 0.0
2014-Aug-11 07:27N 37°56' E 023°41'0 0.0
2014-Aug-11 06:18N 37°56' E 023°41'0 0.0
2014-Aug-11 04:09N 37°56' E 023°41'0 0.0
2014-Aug-11 03:21N 37°56' E 023°41'0 0.0
2014-Aug-11 01:18N 37°56' E 023°41'0 0.0
2014-Aug-11 00:21N 37°56' E 023°41'0 0.0
2014-Aug-10 23:09N 37°56' E 023°41'0 0.0
2014-Aug-10 19:33N 37°56' E 023°41'0 0.0
2014-Aug-10 18:21N 37°56' E 023°41'0 0.0
2014-Aug-10 17:33N 37°56' E 023°41'0 0.0
2014-Aug-10 16:24N 37°56' E 023°41'0 0.0
2014-Aug-10 15:34N 37°56' E 023°41'0 0.0
2014-Aug-10 14:31N 37°56' E 023°41'0 0.0
2014-Aug-10 13:34N 37°56' E 023°41'0 0.0
2014-Aug-10 12:07N 37°56' E 023°41'0 0.0
2014-Aug-10 11:19N 37°56' E 023°41'0 0.0
2014-Aug-10 10:31N 37°56' E 023°41'0 0.0
2014-Aug-10 09:25N 37°56' E 023°41'  
Track history (hours):
 
Tides and Currents Weather Stations Pressure Air Temp Water Temp Dewpoint Dewpoint Depression Visibility Wind Speed Wind Dir Waves Ship Positions

Halwa

Last reported at 2014-Aug-20 09:14 UTC. Time now 2014-Aug-23 09:35 UTC.
Position N 36°09' E 025°17'.

Length 27 m.

Type: Pleasure craft. MMSI: 319035100.

Date/timePositionNaut miles runAvg speedWind from/ knotsBaromVisibWave heightAir tempDewpointWater temp
2014-Aug-20 09:14N 36°09' E 025°17'  
2014-Aug-17 15:27N 36°28' E 025°22'9 1.4
2014-Aug-17 09:19N 36°22' E 025°29'6 7.3
2014-Aug-17 08:33N 36°23' E 025°22'5 5.5
2014-Aug-17 07:33N 36°28' E 025°22'1817.5
2014-Aug-17 06:33N 36°46' E 025°24'1918.6
2014-Aug-17 05:33N 37°04' E 025°18'1919.2
2014-Aug-17 04:33N 37°23' E 025°17'4 4.4
2014-Aug-17 03:31N 37°27' E 025°20'0 0.0
2014-Aug-17 02:28N 37°27' E 025°20'0 0.0
2014-Aug-17 01:19N 37°27' E 025°20'0 0.0
2014-Aug-17 00:31N 37°27' E 025°20'0 0.0
2014-Aug-16 23:31N 37°27' E 025°20'0 0.0
2014-Aug-16 22:31N 37°27' E 025°20'0 0.0
2014-Aug-16 21:31N 37°27' E 025°20'0 0.0
2014-Aug-16 20:31N 37°27' E 025°20'0 0.0
2014-Aug-16 19:22N 37°27' E 025°20'0 0.1
2014-Aug-16 18:30N 37°27' E 025°20'2 2.4
2014-Aug-16 17:29N 37°25' E 025°21'0 0.0
2014-Aug-16 12:32N 37°25' E 025°21'0 0.0
2014-Aug-16 11:29N 37°25' E 025°21'0 0.0
2014-Aug-16 10:17N 37°25' E 025°21'2 3.0
2014-Aug-16 09:33N 37°27' E 025°19'0 0.0
2014-Aug-16 08:33N 37°27' E 025°19'0 0.0
2014-Aug-16 07:33N 37°27' E 025°19'0 0.0
2014-Aug-16 06:33N 37°27' E 025°19'0 0.0
2014-Aug-16 05:33N 37°27' E 025°19'0 0.0
2014-Aug-16 04:33N 37°27' E 025°19'0 0.0
2014-Aug-16 03:33N 37°27' E 025°19'0 0.0
2014-Aug-16 02:33N 37°27' E 025°19'0 0.0
2014-Aug-16 01:33N 37°27' E 025°19'0 0.0
2014-Aug-16 00:33N 37°27' E 025°19'0 0.0
2014-Aug-15 23:33N 37°27' E 025°19'0 0.0
2014-Aug-15 22:33N 37°27' E 025°19'0 0.0
2014-Aug-15 21:33N 37°27' E 025°19'0 0.0
2014-Aug-15 20:33N 37°27' E 025°19'0 0.0
2014-Aug-15 19:33N 37°27' E 025°19'1 1.4
2014-Aug-15 18:31N 37°27' E 025°18'3 3.0
2014-Aug-15 17:27N 37°25' E 025°21'0 0.0
2014-Aug-15 16:33N 37°25' E 025°21'0 0.0
2014-Aug-15 15:33N 37°25' E 025°21'0 0.0
2014-Aug-15 14:33N 37°25' E 025°21'0 0.0
2014-Aug-15 13:33N 37°25' E 025°21'0 0.0
2014-Aug-15 12:30N 37°25' E 025°21'0 0.0
2014-Aug-15 11:30N 37°25' E 025°21'0 0.0
2014-Aug-15 10:33N 37°25' E 025°21'0 0.0
2014-Aug-15 09:33N 37°25' E 025°21'0 0.0
2014-Aug-15 08:30N 37°25' E 025°21'9 9.8
2014-Aug-15 07:32N 37°28' E 025°09'77 2.0
2014-Aug-13 17:33N 37°52' E 023°38'5 4.4
2014-Aug-13 16:29N 37°56' E 023°41'0 0.0
2014-Aug-13 14:26N 37°56' E 023°41'0 0.0
2014-Aug-13 13:20N 37°56' E 023°41'0 0.0
2014-Aug-13 11:14N 37°56' E 023°41'0 0.0
2014-Aug-13 10:23N 37°56' E 023°41'0 0.0
2014-Aug-13 09:23N 37°56' E 023°41'0 0.0
2014-Aug-13 08:32N 37°56' E 023°41'0 0.0
2014-Aug-13 07:08N 37°56' E 023°41'0 0.0
2014-Aug-13 05:26N 37°56' E 023°41'0 0.0
2014-Aug-13 03:26N 37°56' E 023°41'0 0.0
2014-Aug-13 02:05N 37°56' E 023°41'0 0.0
2014-Aug-12 22:11N 37°56' E 023°41'0 0.0
2014-Aug-12 21:32N 37°56' E 023°41'0 0.0
2014-Aug-12 16:21N 37°56' E 023°41'0 0.0
2014-Aug-12 15:33N 37°56' E 023°41'0 0.0
2014-Aug-12 14:30N 37°56' E 023°41'0 0.0
2014-Aug-12 13:24N 37°56' E 023°41'0 0.0
2014-Aug-12 12:27N 37°56' E 023°41'0 0.0
2014-Aug-12 10:21N 37°56' E 023°41'0 0.0
2014-Aug-12 09:30N 37°56' E 023°41'0 0.0
2014-Aug-12 07:33N 37°56' E 023°41'0 0.0
2014-Aug-12 06:30N 37°56' E 023°41'0 0.0
2014-Aug-12 04:30N 37°56' E 023°41'0 0.0
2014-Aug-12 03:12N 37°56' E 023°41'0 0.0
2014-Aug-12 00:30N 37°56' E 023°41'0 0.0
2014-Aug-11 22:33N 37°56' E 023°41'0 0.0
2014-Aug-11 20:30N 37°56' E 023°41'0 0.0
2014-Aug-11 18:33N 37°56' E 023°41'0 0.0
2014-Aug-11 17:12N 37°56' E 023°41'0 0.0
2014-Aug-11 16:33N 37°56' E 023°41'0 0.0
2014-Aug-11 15:33N 37°56' E 023°41'0 0.0
2014-Aug-11 14:30N 37°56' E 023°41'0 0.0
2014-Aug-11 13:33N 37°56' E 023°41'0 0.0
2014-Aug-11 12:33N 37°56' E 023°41'0 0.0
2014-Aug-11 08:30N 37°56' E 023°41'0 0.0
2014-Aug-11 07:27N 37°56' E 023°41'0 0.0
2014-Aug-11 06:18N 37°56' E 023°41'0 0.0
2014-Aug-11 04:09N 37°56' E 023°41'0 0.0
2014-Aug-11 03:21N 37°56' E 023°41'0 0.0
2014-Aug-11 01:18N 37°56' E 023°41'0 0.0
2014-Aug-11 00:21N 37°56' E 023°41'0 0.0
2014-Aug-10 23:09N 37°56' E 023°41'0 0.0
2014-Aug-10 19:33N 37°56' E 023°41'0 0.0
2014-Aug-10 18:21N 37°56' E 023°41'0 0.0
2014-Aug-10 17:33N 37°56' E 023°41'0 0.0
2014-Aug-10 16:24N 37°56' E 023°41'0 0.0
2014-Aug-10 15:34N 37°56' E 023°41'0 0.0
2014-Aug-10 14:31N 37°56' E 023°41'0 0.0
2014-Aug-10 13:34N 37°56' E 023°41'0 0.0
2014-Aug-10 12:07N 37°56' E 023°41'0 0.0
2014-Aug-10 11:19N 37°56' E 023°41'0 0.0
2014-Aug-10 10:31N 37°56' E 023°41'0 0.0
2014-Aug-10 09:25N 37°56' E 023°41'  

Dump ship's entire track history